White Mountain, AK

3:22 AM AKDT on June 27, 2017 (GMT -0800)
White Mountain

Weather History for PAWM - February, 2013

Change the Weather History Date:

Sunday, February 10, 2013

  Actual Average (PAOM) Record (PAOM)
Temperature  
Mean Temperature 12 °F -  
Max Temperature 25 °F 16 °F 39 °F (1980)
Min Temperature 0 °F 0 °F -35 °F (1930)
Degree Days  
Heating Degree Days 52    
Moisture  
Dew Point 13 °F    
Average Humidity 92    
Maximum Humidity 100    
Minimum Humidity 83    
Precipitation  
Precipitation 0.01 in - - ()
Sea Level Pressure  
Sea Level Pressure 29.02 in    
Wind  
Wind Speed 14 mph (SSE)    
Max Wind Speed 23 mph    
Max Gust Speed 31 mph    
Visibility 2 miles    
Events Fog , Snow    
Averages and records for this station are not official NWS values.
T = Trace of Precipitation, MM = Missing Value Source: NWS Daily Summary

Daily Weather History Graph

Daily Weather History Graph

Search for Another Location

Airport or City:

Trip Planner

Search our weather history database for the weather conditions in past years. The results will help you decide how hot, cold, wet, or windy it might be!

Date:

Astronomy

Feb. 10, 2013 Rise Set
Actual Time 10:06 AM AKST 6:10 PM AKST
Civil Twilight 9:12 AM AKST 7:04 PM AKST
Nautical Twilight 8:14 AM AKST 8:02 PM AKST
Astronomical Twilight 7:18 AM AKST 8:58 PM AKST
Moon 9:29 AM AKST (2/10) 7:59 PM AKST (2/10)
Length of Visible Light 9h 51m
Length of Day
8h 03m
New Moon, 0% of the Moon is Illuminated
Feb 10
New Moon
Feb 17
First Quarter
Feb 25
Full
Mar 4
Last Quarter
Mar 11
New

Hourly Weather History & Observations

Time (AKST) Temp. Windchill Dew Point Humidity Pressure Visibility Wind Dir Wind Speed Gust Speed Precip Events Conditions
12:06 AM 12.2 °F -4.3 °F 10.4 °F 92% 28.86 in 10.0 mi North 16.1 mph - N/A   Overcast
12:11 AM 12.2 °F -4.3 °F 10.4 °F 92% 28.86 in 10.0 mi North 16.1 mph - N/A   Overcast
12:58 AM 15.1 °F -0.1 °F 10.9 °F 84% 28.89 in 9.0 mi North 15.0 mph - 0.00 in Snow Light Snow
1:58 AM 16.0 °F 0.6 °F 12.9 °F 88% 28.88 in 9.0 mi North 16.1 mph - 0.00 in Snow Light Snow
2:15 AM 15.8 °F 1.4 °F 12.2 °F 86% 28.85 in 5.0 mi North 13.8 mph - 0.00 in Snow Light Snow
3:11 AM 17.6 °F 5.0 °F 14.0 °F 86% 28.85 in 3.0 mi North 11.5 mph - 0.00 in Snow Light Snow
3:48 AM 15.8 °F 2.7 °F 14.0 °F 93% 28.84 in 2.5 mi North 11.5 mph - 0.00 in Snow Light Snow
3:58 AM 16.0 °F 2.3 °F 14.0 °F 92% 28.87 in 2.0 mi North 12.7 mph - 0.00 in Snow Light Snow
4:11 AM 17.6 °F 5.7 °F 15.8 °F 93% 28.84 in 3.0 mi North 10.4 mph - 0.00 in Snow Light Snow
4:58 AM 18.0 °F 6.9 °F 17.1 °F 96% 28.86 in 6.0 mi North 9.2 mph - 0.00 in Snow Light Snow
6:22 AM 19.4 °F 7.9 °F 17.6 °F 93% 28.81 in 2.5 mi North 10.4 mph - 0.00 in Snow Light Snow
6:58 AM 19.9 °F 7.9 °F 18.0 °F 92% 28.84 in 3.0 mi North 11.5 mph - 0.00 in Snow Light Snow
7:08 AM 19.4 °F 7.2 °F 17.6 °F 93% 28.81 in 2.5 mi North 11.5 mph - 0.00 in Snow Light Snow
7:22 AM 19.4 °F 7.2 °F 19.4 °F 100% 28.81 in 1.8 mi North 11.5 mph - 0.00 in Snow Light Snow
7:58 AM 19.9 °F 7.9 °F 19.0 °F 96% 28.84 in 1.2 mi North 11.5 mph - 0.00 in Snow Light Snow
8:11 AM 21.2 °F 9.5 °F 19.4 °F 93% 28.81 in 1.2 mi North 11.5 mph - 0.00 in Snow Light Snow
8:44 AM 21.2 °F 10.1 °F 19.4 °F 93% 28.81 in 2.5 mi North 10.4 mph - 0.00 in Snow Light Snow
8:49 AM 21.2 °F 10.9 °F 19.4 °F 93% 28.81 in 3.0 mi North 9.2 mph - 0.00 in Snow Light Snow
8:58 AM 21.0 °F 9.9 °F 19.9 °F 96% 28.84 in 2.5 mi North 10.4 mph - 0.00 in Snow Light Snow
9:03 AM 21.2 °F 10.1 °F 19.4 °F 93% 28.81 in 3.0 mi North 10.4 mph - 0.00 in Snow Light Snow
9:38 AM 21.2 °F 10.9 °F 19.4 °F 93% 28.82 in 2.5 mi North 9.2 mph - 0.00 in Snow Light Snow
9:46 AM 21.2 °F 10.9 °F 19.4 °F 93% 28.82 in 3.0 mi North 9.2 mph - 0.00 in Snow Light Snow
9:53 AM 21.2 °F 10.9 °F 21.2 °F 100% 28.82 in 2.5 mi North 9.2 mph - 0.00 in Snow Light Snow
9:58 AM 21.9 °F 11.7 °F 21.0 °F 96% 28.86 in 2.0 mi North 9.2 mph - 0.00 in Snow Light Snow
10:07 AM 21.2 °F 12.6 °F 21.2 °F 100% 28.83 in 1.5 mi North 6.9 mph - 0.00 in Snow Light Snow
10:23 AM 21.2 °F 11.7 °F 21.2 °F 100% 28.83 in 1.0 mi North 8.1 mph - 0.00 in Snow Light Snow
10:32 AM 21.2 °F 11.7 °F 21.2 °F 100% 28.84 in 0.8 mi North 8.1 mph - 0.00 in Snow Light Snow
10:47 AM 21.2 °F 12.6 °F 21.2 °F 100% 28.84 in 1.2 mi North 6.9 mph - 0.00 in Snow Light Snow
10:58 AM 23.0 °F 17.0 °F 21.0 °F 92% 28.88 in 1.8 mi NNE 4.6 mph - 0.00 in Snow Light Snow
11:14 AM 23.0 °F - 21.2 °F 93% 28.86 in 1.0 mi Calm Calm - 0.01 in Snow Light Snow
11:28 AM 23.0 °F 18.4 °F 21.2 °F 93% 28.86 in 1.2 mi East 3.5 mph - 0.01 in Snow Light Snow
11:45 AM 24.8 °F 19.1 °F 23.0 °F 93% 28.87 in 2.0 mi East 4.6 mph - 0.01 in Snow Light Snow
11:58 AM 25.0 °F 15.5 °F 24.1 °F 96% 28.91 in 3.0 mi ESE 9.2 mph - 0.01 in Snow Light Snow
12:04 PM 24.8 °F 15.3 °F 24.8 °F 100% 28.88 in 2.5 mi ESE 9.2 mph - 0.00 in Snow Light Snow
12:35 PM 24.8 °F 13.4 °F 24.8 °F 100% 28.89 in 1.8 mi East 12.7 mph - 0.00 in Snow Light Snow
12:58 PM 25.0 °F 13.6 °F 23.0 °F 92% 28.93 in 1.2 mi ESE 12.7 mph - 0.00 in Snow Light Snow
1:06 PM 24.8 °F 12.9 °F 23.0 °F 93% 28.90 in 1.0 mi ESE 13.8 mph - 0.00 in Snow Light Snow
1:10 PM 24.8 °F 12.4 °F 23.0 °F 93% 28.90 in 0.8 mi ESE 15.0 mph - 0.00 in Snow Light Snow
1:18 PM 24.8 °F 11.9 °F 23.0 °F 93% 28.90 in 0.8 mi SE 16.1 mph - 0.00 in Snow Light Snow
1:22 PM 24.8 °F 11.9 °F 23.0 °F 93% 28.91 in 1.0 mi SE 16.1 mph 24.2 mph 0.00 in Snow Light Snow
1:26 PM 24.8 °F 11.9 °F 23.0 °F 93% 28.91 in 1.0 mi SE 16.1 mph 24.2 mph 0.00 in Snow Light Snow
1:35 PM 24.8 °F 11.9 °F 23.0 °F 93% 28.91 in 0.8 mi SE 16.1 mph 24.2 mph 0.00 in Snow Light Snow
1:42 PM 24.8 °F 12.9 °F 23.0 °F 93% 28.91 in 0.8 mi SSE 13.8 mph - 0.00 in Snow Light Snow
1:49 PM 24.8 °F 14.6 °F 23.0 °F 93% 28.92 in 0.8 mi SSE 10.4 mph - 0.00 in Snow Light Snow
1:54 PM 24.8 °F 12.4 °F 23.0 °F 93% 28.92 in 0.5 mi SSE 15.0 mph - 0.00 in Fog , Snow Snow
1:58 PM 24.1 °F 11.5 °F 23.0 °F 96% 28.95 in 0.5 mi SSE 15.0 mph 23.0 mph 0.00 in Fog , Snow Snow
2:03 PM 23.0 °F 10.1 °F 21.2 °F 93% 28.93 in 0.2 mi SSE 15.0 mph 23.0 mph 0.00 in Fog , Snow Snow
2:10 PM 23.0 °F 9.6 °F 21.2 °F 93% 28.93 in 0.5 mi SSE 16.1 mph - 0.00 in Fog , Snow Snow
2:34 PM 19.4 °F 6.0 °F 17.6 °F 93% 28.95 in 0.8 mi South 13.8 mph 24.2 mph 0.00 in Snow Light Snow
2:41 PM 19.4 °F 5.5 °F 17.6 °F 93% 28.96 in 1.0 mi South 15.0 mph 23.0 mph 0.00 in Snow Light Snow
2:53 PM 17.6 °F 2.7 °F 15.8 °F 93% 28.97 in 0.8 mi South 16.1 mph 24.2 mph 0.00 in Snow Light Snow
2:58 PM 17.1 °F 1.5 °F 16.0 °F 96% 29.01 in 1.0 mi South 17.3 mph 24.2 mph 0.00 in Snow Light Snow
3:03 PM 17.6 °F 2.7 °F 15.8 °F 93% 28.98 in 1.0 mi South 16.1 mph 24.2 mph 0.00 in Snow Light Snow
3:20 PM 15.8 °F 1.4 °F 14.0 °F 93% 29.00 in 1.2 mi South 13.8 mph 23.0 mph 0.00 in Snow Light Snow
3:33 PM 14.0 °F -2.5 °F 12.2 °F 93% 29.01 in 1.0 mi South 17.3 mph - 0.00 in Snow Light Snow
3:44 PM 14.0 °F -3.0 °F 12.2 °F 93% 29.02 in 0.8 mi South 18.4 mph 25.3 mph 0.00 in Snow Light Snow
3:58 PM 14.0 °F -2.5 °F 12.0 °F 92% 29.07 in 0.5 mi South 17.3 mph 23.0 mph 0.00 in Fog , Snow Snow
4:58 PM 10.0 °F -7.6 °F 9.0 °F 95% 29.13 in 0.5 mi SSW 17.3 mph 27.6 mph 0.00 in Fog , Snow Snow
5:31 PM 8.6 °F -11.4 °F 8.6 °F 100% 29.15 in 0.8 mi South 21.9 mph 31.1 mph 0.00 in Snow Light Snow
5:35 PM 8.6 °F -11.4 °F 6.8 °F 92% 29.15 in 1.2 mi South 21.9 mph 31.1 mph 0.00 in Snow Light Snow
5:58 PM 8.1 °F -12.6 °F 6.1 °F 92% 29.21 in 2.0 mi SSW 23.0 mph 29.9 mph 0.00 in Snow Light Snow
6:06 PM 6.8 °F -11.3 °F 5.0 °F 92% 29.19 in 2.5 mi South 16.1 mph 29.9 mph 0.00 in Snow Light Snow
6:16 PM 6.8 °F -12.4 °F 5.0 °F 92% 29.20 in 3.0 mi South 18.4 mph 26.5 mph 0.00 in Snow Light Snow
6:25 PM 6.8 °F -11.8 °F 3.2 °F 85% 29.21 in 2.5 mi South 17.3 mph 27.6 mph 0.00 in Snow Light Snow
6:43 PM 6.8 °F -13.4 °F 3.2 °F 85% 29.23 in 4.0 mi SSW 20.7 mph 27.6 mph 0.00 in Snow Light Snow
6:58 PM 6.1 °F -14.8 °F 3.0 °F 87% 29.27 in 5.0 mi SSW 21.9 mph 27.6 mph 0.00 in Snow Light Snow
7:08 PM 6.8 °F -12.9 °F 3.2 °F 85% 29.24 in 2.0 mi SSW 19.6 mph 27.6 mph 0.00 in Snow Light Snow
7:12 PM 6.8 °F -11.8 °F 3.2 °F 85% 29.25 in 1.8 mi SSW 17.3 mph 27.6 mph 0.00 in Snow Light Snow
7:31 PM 6.8 °F -9.3 °F 3.2 °F 85% 29.28 in 2.0 mi South 12.7 mph 20.7 mph 0.00 in Snow Light Snow
7:33 PM 6.8 °F -8.6 °F 3.2 °F 85% 29.28 in 1.8 mi South 11.5 mph 20.7 mph 0.00 in Snow Light Snow
7:49 PM 6.8 °F -13.4 °F 3.2 °F 85% 29.29 in 1.0 mi SSW 20.7 mph - 0.00 in Snow Light Snow
7:57 PM 6.1 °F -14.3 °F 3.0 °F 87% 29.32 in 1.8 mi SSW 20.7 mph 25.3 mph 0.00 in Snow Light Snow
8:01 PM 6.8 °F -13.4 °F 3.2 °F 85% 29.29 in 2.5 mi SSW 20.7 mph 26.5 mph 0.00 in Snow Light Snow
8:17 PM 5.0 °F -15.2 °F 3.2 °F 92% 29.30 in 1.0 mi South 19.6 mph 25.3 mph 0.00 in Snow Light Snow
8:22 PM 5.0 °F -14.7 °F 3.2 °F 92% 29.30 in 0.8 mi South 18.4 mph 25.3 mph 0.00 in Snow Light Snow
8:29 PM 3.2 °F -17.6 °F 1.4 °F 92% 29.31 in 1.0 mi South 19.6 mph 27.6 mph 0.00 in Snow Light Snow
8:38 PM 3.2 °F -16.5 °F 1.4 °F 92% 29.32 in 1.2 mi South 17.3 mph 27.6 mph 0.00 in Snow Light Snow
8:56 PM 3.2 °F -17.6 °F 1.4 °F 92% 29.33 in 2.5 mi South 19.6 mph 28.8 mph 0.00 in Snow Light Snow
8:58 PM 3.0 °F -17.3 °F 1.0 °F 91% 29.37 in 3.0 mi South 18.4 mph 28.8 mph 0.00 in Snow Light Snow
9:41 PM 1.4 °F -18.8 °F -0.4 °F 92% 29.36 in 2.5 mi South 17.3 mph - 0.00 in Snow Light Snow
9:46 PM 1.4 °F -18.8 °F -0.4 °F 92% 29.37 in 3.0 mi South 17.3 mph 26.5 mph 0.00 in Snow Light Snow
9:58 PM 1.0 °F -20.9 °F -2.0 °F 87% 29.41 in 3.0 mi South 20.7 mph 29.9 mph 0.00 in Snow Light Snow
10:24 PM -0.4 °F -21.7 °F -2.2 °F 92% 29.39 in 2.5 mi South 18.4 mph 25.3 mph 0.00 in Snow Light Snow
10:33 PM -0.4 °F -22.3 °F -2.2 °F 92% 29.39 in 3.0 mi South 19.6 mph 25.3 mph 0.00 in Snow Light Snow
10:58 PM -0.0 °F -20.1 °F -2.9 °F 88% 29.45 in 4.0 mi South 16.1 mph 23.0 mph 0.00 in Snow Light Snow
11:58 PM -0.9 °F -21.9 °F -5.1 °F 83% 29.49 in 8.0 mi South 17.3 mph 24.2 mph 0.00 in   Overcast